Time;durP1;ratioP1;P1;durP2;ratioP2;P2;SDS_P1;SDS_P2;PMS_P1;PMS_P2;Temp;Humidity;BMP_temperature;BMP_pressure;BME280_temperature;BME280_humidity;BME280_pressure;Samples;Min_cycle;Max_cycle;Signal;HPM_P1;HPM_P2
2022/01/03 00:00:29;;;;;;;17.92;3.42;;;;;;;;;;5058010;28;20048;-72
2022/01/03 00:02:56;;;;;;;19.70;3.65;;;;;;;;;;5051966;28;20068;-85
2022/01/03 00:05:22;;;;;;;15.60;3.05;;;;;;;;;;5062011;28;20041;-79
2022/01/03 00:07:49;;;;;;;20.48;3.72;;;;;;;;;;5072645;28;20040;-75
2022/01/03 00:10:15;;;;;;;;;;;;;;;;;;5079760;28;20075;-75
2022/01/03 00:12:42;;;;;;;18.05;4.03;;;;;;;;;;5081725;28;20287;-82
2022/01/03 00:15:09;;;;;;;18.75;3.80;;;;;;;;;;5085393;28;20043;-73
2022/01/03 00:17:35;;;;;;;22.77;4.07;;;;;;;;;;5113839;28;20087;-81
2022/01/03 00:20:01;;;;;;;19.58;4.07;;;;;;;;;;5065761;28;20148;-77
2022/01/03 00:22:32;;;;;;;24.98;4.00;;;;;;;;;;5054588;28;20048;-73
2022/01/03 00:24:59;;;;;;;25.27;4.13;;;;;;;;;;5085805;28;20063;-83
2022/01/03 00:27:29;;;;;;;27.60;4.15;;;;;;;;;;5085837;28;20048;-85
2022/01/03 00:29:55;;;;;;;21.52;4.45;;;;;;;;;;5092078;28;20048;-81
2022/01/03 00:32:22;;;;;;;21.33;4.57;;;;;;;;;;5078125;28;20126;-75
2022/01/03 00:34:51;;;;;;;17.65;3.95;;;;;;;;;;5090071;28;20530;-71
2022/01/03 00:37:19;;;;;;;24.45;4.07;;;;;;;;;;5073780;28;20052;-72
2022/01/03 00:39:46;;;;;;;22.52;4.35;;;;;;;;;;5071256;28;20131;-75
2022/01/03 00:42:14;;;;;;;19.65;4.63;;;;;;;;;;5059367;28;20045;-76
2022/01/03 00:44:42;;;;;;;19.58;3.90;;;;;;;;;;5051189;28;20111;-70
2022/01/03 00:47:10;;;;;;;19.23;3.85;;;;;;;;;;5061164;28;20070;-74
2022/01/03 00:49:38;;;;;;;22.00;5.10;;;;;;;;;;5064919;28;20563;-80
2022/01/03 00:52:04;;;;;;;21.45;4.55;;;;;;;;;;5067727;28;20044;-75
2022/01/03 00:54:31;;;;;;;27.20;4.70;;;;;;;;;;5068299;28;20059;-73
2022/01/03 00:57:01;;;;;;;29.80;4.90;;;;;;;;;;5065640;28;20044;-69
2022/01/03 00:59:44;;;;;;;20.60;3.95;;;;;;;;;;5051353;28;20127;-81
2022/01/03 01:02:11;;;;;;;22.38;4.95;;;;;;;;;;5102615;28;20349;-70
2022/01/03 01:04:37;;;;;;;24.30;4.75;;;;;;;;;;5067419;28;20127;-78
2022/01/03 01:07:06;;;;;;;25.38;4.70;;;;;;;;;;5053796;28;20043;-72
2022/01/03 01:09:34;;;;;;;18.63;3.88;;;;;;;;;;5072155;28;20084;-69
2022/01/03 01:12:00;;;;;;;25.40;5.47;;;;;;;;;;5074105;28;20370;-74
2022/01/03 01:14:27;;;;;;;24.27;4.80;;;;;;;;;;5067209;28;20103;-72
2022/01/03 01:16:54;;;;;;;27.23;4.03;;;;;;;;;;5071615;28;20044;-74
2022/01/03 01:19:20;;;;;;;20.45;4.72;;;;;;;;;;5072717;28;20045;-79
2022/01/03 01:21:46;;;;;;;;;;;;;;;;;;5072496;28;20453;-72
2022/01/03 01:24:12;;;;;;;21.25;3.92;;;;;;;;;;5074484;28;19932;-74
2022/01/03 01:29:23;;;;;;;24.77;4.68;;;;;;;;;;5054493;28;20049;-73
2022/01/03 01:31:51;;;;;;;29.08;4.93;;;;;;;;;;5073126;28;20041;-78
2022/01/03 01:34:22;;;;;;;28.40;4.47;;;;;;;;;;5054313;28;20452;-76
2022/01/03 01:36:51;;;;;;;34.08;5.75;;;;;;;;;;5053616;28;20099;-73
2022/01/03 01:39:17;;;;;;;29.23;4.15;;;;;;;;;;5086769;28;20099;-72
2022/01/03 01:41:45;;;;;;;30.48;4.70;;;;;;;;;;5053733;28;20049;-75
2022/01/03 01:44:11;;;;;;;33.42;6.10;;;;;;;;;;5070031;28;20077;-73
2022/01/03 01:46:43;;;;;;;31.83;5.28;;;;;;;;;;5055166;28;20045;-74
2022/01/03 01:49:14;;;;;;;41.22;6.57;;;;;;;;;;5053220;28;20124;-73
2022/01/03 01:51:41;;;;;;;37.65;5.35;;;;;;;;;;5065264;28;20148;-84
2022/01/03 01:54:09;;;;;;;38.03;6.55;;;;;;;;;;5064466;28;20059;-76
2022/01/03 01:56:45;;;;;;;29.27;5.50;;;;;;;;;;5054007;28;20113;-79
2022/01/03 01:59:21;;;;;;;32.45;4.60;;;;;;;;;;5054035;28;20064;-71
2022/01/03 02:01:57;;;;;;;29.45;5.35;;;;;;;;;;5068437;28;20440;-75
2022/01/03 02:04:42;;;;;;;30.65;5.43;;;;;;;;;;5071792;28;20386;-74
2022/01/03 02:07:21;;;;;;;29.52;5.05;;;;;;;;;;5054103;28;20469;-73
2022/01/03 02:10:00;;;;;;;29.65;5.95;;;;;;;;;;5054029;28;20041;-75
2022/01/03 02:12:27;;;;;;;30.08;5.45;;;;;;;;;;5053151;28;20048;-72
2022/01/03 02:14:57;;;;;;;26.85;5.63;;;;;;;;;;5052673;28;20041;-76
2022/01/03 02:17:23;;;;;;;27.85;4.90;;;;;;;;;;5052318;28;20182;-70
2022/01/03 02:20:05;;;;;;;33.65;5.13;;;;;;;;;;5051363;28;20473;-85
2022/01/03 02:22:31;;;;;;;25.63;4.85;;;;;;;;;;5053428;28;20041;-77
2022/01/03 02:24:57;;;;;;;26.80;4.90;;;;;;;;;;5054448;28;20128;-73
2022/01/03 02:27:23;;;;;;;31.60;5.88;;;;;;;;;;5053032;28;20075;-71
2022/01/03 02:29:49;;;;;;;31.77;5.15;;;;;;;;;;5058449;28;20045;-76
2022/01/03 02:32:15;;;;;;;40.28;6.00;;;;;;;;;;5072391;28;20044;-82
2022/01/03 02:34:42;;;;;;;33.90;6.13;;;;;;;;;;5070653;28;20040;-69
2022/01/03 02:37:08;;;;;;;28.90;5.20;;;;;;;;;;5103987;28;20053;-70
2022/01/03 02:39:34;;;;;;;29.73;6.03;;;;;;;;;;5071175;28;20480;-74
2022/01/03 02:42:00;;;;;;;;;;;;;;;;;;5062165;28;20040;-73
2022/01/03 02:44:26;;;;;;;34.17;5.68;;;;;;;;;;5057465;28;19971;-83
2022/01/03 02:46:53;;;;;;;29.17;5.75;;;;;;;;;;5051448;28;20045;-78
2022/01/03 02:49:19;;;;;;;30.02;6.30;;;;;;;;;;5053178;28;20049;-75
2022/01/03 02:51:45;;;;;;;30.02;5.18;;;;;;;;;;5067750;28;20056;-82
2022/01/03 02:54:12;;;;;;;31.25;5.32;;;;;;;;;;5085615;28;20051;-84
2022/01/03 02:56:39;;;;;;;24.23;4.32;;;;;;;;;;5070707;28;20059;-76
2022/01/03 02:59:15;;;;;;;33.47;5.68;;;;;;;;;;5070676;28;20051;-76
2022/01/03 03:01:42;;;;;;;31.75;5.90;;;;;;;;;;5060006;28;20064;-77
2022/01/03 03:04:08;;;;;;;38.67;6.78;;;;;;;;;;5081021;28;20274;-75
2022/01/03 03:06:34;;;;;;;;;;;;;;;;;;5072222;28;20048;-70
2022/01/03 03:09:04;;;;;;;30.40;6.25;;;;;;;;;;5070746;28;19921;-79
2022/01/03 03:11:32;;;;;;;31.60;5.47;;;;;;;;;;5061517;28;20045;-82
2022/01/03 03:13:58;;;;;;;39.60;6.72;;;;;;;;;;5057554;28;20131;-72
2022/01/03 03:16:25;;;;;;;37.00;5.38;;;;;;;;;;5051326;28;20148;-78
2022/01/03 03:18:51;;;;;;;37.60;8.05;;;;;;;;;;5050693;28;20045;-71
2022/01/03 03:21:17;;;;;;;35.35;5.90;;;;;;;;;;5050806;28;20044;-75
2022/01/03 03:23:43;;;;;;;31.48;6.35;;;;;;;;;;5054101;28;20048;-79
2022/01/03 03:26:10;;;;;;;36.40;5.75;;;;;;;;;;5068723;28;20057;-74
2022/01/03 03:28:36;;;;;;;36.88;6.00;;;;;;;;;;5056469;28;20059;-74
2022/01/03 03:31:03;;;;;;;31.45;5.32;;;;;;;;;;5049889;28;20473;-77
2022/01/03 03:33:29;;;;;;;;;;;;;;;;;;5054494;28;20056;-75
2022/01/03 03:35:56;;;;;;;33.05;5.85;;;;;;;;;;5067991;28;19966;-90
2022/01/03 03:38:25;;;;;;;27.05;6.15;;;;;;;;;;5069019;28;20131;-77
2022/01/03 03:40:55;;;;;;;34.25;6.05;;;;;;;;;;5065956;28;20048;-75
2022/01/03 03:43:21;;;;;;;35.90;5.75;;;;;;;;;;5050116;28;20084;-72
2022/01/03 03:45:50;;;;;;;33.20;5.40;;;;;;;;;;5068979;28;20390;-84
2022/01/03 03:48:17;;;;;;;33.92;6.03;;;;;;;;;;5055119;28;20250;-71
2022/01/03 03:50:44;;;;;;;37.10;6.13;;;;;;;;;;5060938;28;20048;-67
2022/01/03 03:53:11;;;;;;;35.55;6.10;;;;;;;;;;5069501;28;20041;-78
2022/01/03 03:55:37;;;;;;;46.95;6.45;;;;;;;;;;5053487;28;20076;-78
2022/01/03 03:58:04;;;;;;;48.97;7.07;;;;;;;;;;5050673;28;20056;-83
2022/01/03 04:00:30;;;;;;;28.00;5.30;;;;;;;;;;5049028;28;20049;-77
2022/01/03 04:02:56;;;;;;;31.75;6.32;;;;;;;;;;5056520;28;20082;-81
2022/01/03 04:05:22;;;;;;;28.02;4.93;;;;;;;;;;5060423;28;20127;-76
2022/01/03 04:07:48;;;;;;;;;;;;;;;;;;5069867;28;20094;-85
2022/01/03 04:10:17;;;;;;;33.78;5.60;;;;;;;;;;5085394;28;19920;-76
2022/01/03 04:12:44;;;;;;;31.00;5.78;;;;;;;;;;5069288;28;20423;-74
2022/01/03 04:15:10;;;;;;;42.30;6.60;;;;;;;;;;5099709;28;20044;-86
2022/01/03 04:17:36;;;;;;;34.80;5.70;;;;;;;;;;5082067;28;20067;-79
2022/01/03 04:20:05;;;;;;;28.05;5.88;;;;;;;;;;5068143;28;20048;-73
2022/01/03 04:22:31;;;;;;;40.33;6.38;;;;;;;;;;5069540;28;20059;-74
2022/01/03 04:24:57;;;;;;;45.60;7.85;;;;;;;;;;5060625;28;20053;-78
2022/01/03 04:27:23;;;;;;;36.25;6.35;;;;;;;;;;5066069;28;20048;-75
2022/01/03 04:29:49;;;;;;;37.45;6.75;;;;;;;;;;5068547;28;20044;-76
2022/01/03 04:32:16;;;;;;;37.63;6.65;;;;;;;;;;5068028;28;20158;-74
2022/01/03 04:34:42;;;;;;;33.67;5.97;;;;;;;;;;5069082;28;20076;-75
2022/01/03 04:37:09;;;;;;;40.22;6.70;;;;;;;;;;5065898;28;20142;-73
2022/01/03 04:39:35;;;;;;;37.25;6.63;;;;;;;;;;5068915;28;20084;-72
2022/01/03 04:42:01;;;;;;;41.47;6.63;;;;;;;;;;5064932;28;20044;-72
2022/01/03 04:44:27;;;;;;;34.42;5.93;;;;;;;;;;5069362;28;20504;-74
2022/01/03 04:46:55;;;;;;;37.88;6.90;;;;;;;;;;5070885;28;20036;-74
2022/01/03 04:49:21;;;;;;;32.75;6.93;;;;;;;;;;5072756;28;20052;-74
2022/01/03 04:51:47;;;;;;;;;;;;;;;;;;5058679;28;20054;-72
2022/01/03 04:54:13;;;;;;;46.53;6.88;;;;;;;;;;5053187;28;20385;-73
2022/01/03 04:56:39;;;;;;;46.35;6.28;;;;;;;;;;5054504;28;20134;-74
2022/01/03 04:59:05;;;;;;;44.55;7.20;;;;;;;;;;5052953;28;20109;-86
2022/01/03 05:01:31;;;;;;;41.60;7.13;;;;;;;;;;5076812;28;20045;-81
2022/01/03 05:03:58;;;;;;;38.55;7.15;;;;;;;;;;5053315;28;20124;-76
2022/01/03 05:06:24;;;;;;;;;;;;;;;;;;5070954;28;20052;-72
2022/01/03 05:08:50;;;;;;;42.13;7.30;;;;;;;;;;5073240;28;19931;-70
2022/01/03 05:11:16;;;;;;;35.38;6.03;;;;;;;;;;5054250;28;20047;-74
2022/01/03 05:13:42;;;;;;;;;;;;;;;;;;5079929;28;20389;-85
2022/01/03 05:16:09;;;;;;;38.80;7.30;;;;;;;;;;5093364;28;19927;-75
2022/01/03 05:18:35;;;;;;;;;;;;;;;;;;5075704;28;20106;-74
2022/01/03 05:21:01;;;;;;;39.05;6.50;;;;;;;;;;5071441;28;20318;-81
2022/01/03 05:23:27;;;;;;;37.28;7.13;;;;;;;;;;5084690;28;20066;-76
2022/01/03 05:25:53;;;;;;;45.72;7.75;;;;;;;;;;5072320;28;20052;-77
2022/01/03 05:28:19;;;;;;;41.40;8.00;;;;;;;;;;5070385;28;20106;-75
2022/01/03 05:30:46;;;;;;;38.85;6.30;;;;;;;;;;5052699;28;20124;-77
2022/01/03 05:33:12;;;;;;;40.38;7.15;;;;;;;;;;5064858;28;20048;-84
2022/01/03 05:35:38;;;;;;;41.97;7.75;;;;;;;;;;5088882;28;20067;-84
2022/01/03 05:38:04;;;;;;;47.15;6.75;;;;;;;;;;5075520;28;20058;-77
2022/01/03 05:40:30;;;;;;;39.92;6.25;;;;;;;;;;5067762;28;20116;-74
2022/01/03 05:42:56;;;;;;;39.28;6.57;;;;;;;;;;5053517;28;20044;-83
2022/01/03 05:45:22;;;;;;;39.53;7.63;;;;;;;;;;5053152;28;20167;-73
2022/01/03 05:47:48;;;;;;;43.42;7.47;;;;;;;;;;5076159;28;20040;-71
2022/01/03 05:50:15;;;;;;;47.67;7.72;;;;;;;;;;5074331;28;20047;-72
2022/01/03 05:52:41;;;;;;;44.65;8.48;;;;;;;;;;5067304;28;20477;-71
2022/01/03 05:55:08;;;;;;;46.95;7.97;;;;;;;;;;5054283;28;20052;-79
2022/01/03 05:57:34;;;;;;;40.97;7.45;;;;;;;;;;5052604;28;20059;-73
2022/01/03 06:00:02;;;;;;;47.45;8.48;;;;;;;;;;5066829;28;20057;-78
2022/01/03 06:02:32;;;;;;;40.00;7.57;;;;;;;;;;5056039;28;20049;-75
2022/01/03 06:05:01;;;;;;;41.17;7.53;;;;;;;;;;5066398;28;20083;-76
2022/01/03 06:07:27;;;;;;;47.25;7.13;;;;;;;;;;5086873;28;20143;-77
2022/01/03 06:09:53;;;;;;;32.88;7.00;;;;;;;;;;5057720;28;20116;-78
2022/01/03 06:12:20;;;;;;;43.83;7.28;;;;;;;;;;5052535;28;20037;-80
2022/01/03 06:14:47;;;;;;;46.17;7.93;;;;;;;;;;5069169;28;20135;-79
2022/01/03 06:17:14;;;;;;;38.70;7.75;;;;;;;;;;5085003;28;20369;-76
2022/01/03 06:19:40;;;;;;;41.55;6.47;;;;;;;;;;5070537;28;20052;-77
2022/01/03 06:22:08;;;;;;;49.20;7.80;;;;;;;;;;5071222;28;20116;-78
2022/01/03 06:24:34;;;;;;;48.60;7.45;;;;;;;;;;5073249;28;20056;-76
2022/01/03 06:27:00;;;;;;;40.40;7.93;;;;;;;;;;5070197;28;20372;-75
2022/01/03 06:29:27;;;;;;;49.25;6.82;;;;;;;;;;5059965;28;20106;-72
2022/01/03 06:31:53;;;;;;;40.25;7.50;;;;;;;;;;5071115;28;20140;-71
2022/01/03 06:34:19;;;;;;;49.83;7.95;;;;;;;;;;5063605;28;20056;-76
2022/01/03 06:36:45;;;;;;;;;;;;;;;;;;5066086;28;20044;-76
2022/01/03 06:39:12;;;;;;;40.90;6.30;;;;;;;;;;5061285;28;19974;-73
2022/01/03 06:41:40;;;;;;;40.97;7.15;;;;;;;;;;5061868;28;20052;-73
2022/01/03 06:44:18;;;;;;;33.92;6.75;;;;;;;;;;5065032;28;20037;-79
2022/01/03 06:46:44;;;;;;;47.33;7.70;;;;;;;;;;5068290;28;20052;-72
2022/01/03 06:49:10;;;;;;;43.47;6.18;;;;;;;;;;5051212;28;20059;-70
2022/01/03 06:51:36;;;;;;;40.00;7.32;;;;;;;;;;5051285;28;20048;-71
2022/01/03 06:54:07;;;;;;;42.47;7.07;;;;;;;;;;5052789;28;20041;-75
2022/01/03 06:56:34;;;;;;;46.53;7.57;;;;;;;;;;5083288;28;20083;-72
2022/01/03 06:59:00;;;;;;;31.98;6.05;;;;;;;;;;5051858;28;20091;-78
2022/01/03 07:01:26;;;;;;;39.30;7.75;;;;;;;;;;5051879;28;20127;-77
2022/01/03 07:03:52;;;;;;;;;;;;;;;;;;5051822;28;20044;-76
2022/01/03 07:06:18;;;;;;;39.25;6.72;;;;;;;;;;5050772;28;20314;-75
2022/01/03 07:08:44;;;;;;;36.33;6.60;;;;;;;;;;5048415;28;20157;-81
2022/01/03 07:11:10;;;;;;;39.08;7.15;;;;;;;;;;5050835;28;20401;-79
2022/01/03 07:14:05;;;;;;;46.25;8.32;;;;;;;;;;5067897;28;20056;-83
2022/01/03 07:19:10;;;;;;;53.08;7.97;;;;;;;;;;5098141;28;20044;-77
2022/01/03 07:21:36;;;;;;;37.63;7.20;;;;;;;;;;5071205;28;20143;-79
2022/01/03 07:24:02;;;;;;;37.72;7.38;;;;;;;;;;5069781;28;20149;-78
2022/01/03 07:26:28;;;;;;;43.72;7.45;;;;;;;;;;5063816;28;20056;-79
2022/01/03 07:28:55;;;;;;;36.88;8.05;;;;;;;;;;5071282;28;20049;-74
2022/01/03 07:31:21;;;;;;;40.85;6.90;;;;;;;;;;5066620;28;20048;-76
2022/01/03 07:33:47;;;;;;;56.67;7.32;;;;;;;;;;5070243;28;20051;-71
2022/01/03 07:36:13;;;;;;;43.78;7.28;;;;;;;;;;5071746;28;20490;-76
2022/01/03 07:38:40;;;;;;;45.70;7.85;;;;;;;;;;5070300;28;20404;-78
2022/01/03 07:41:08;;;;;;;48.70;7.40;;;;;;;;;;5102861;28;20044;-71
2022/01/03 07:43:34;;;;;;;35.75;7.60;;;;;;;;;;5065992;28;20403;-84
2022/01/03 07:46:00;;;;;;;48.95;7.13;;;;;;;;;;5071163;28;20044;-71
2022/01/03 07:48:26;;;;;;;53.92;9.48;;;;;;;;;;5074534;28;20215;-74
2022/01/03 07:50:52;;;;;;;36.80;6.53;;;;;;;;;;5105963;28;20124;-82
2022/01/03 07:53:18;;;;;;;50.25;8.80;;;;;;;;;;5072269;28;20040;-71
2022/01/03 07:55:44;;;;;;;50.55;8.45;;;;;;;;;;5082864;28;20199;-80
2022/01/03 07:58:14;;;;;;;42.20;6.80;;;;;;;;;;5051633;28;20048;-87
2022/01/03 08:00:40;;;;;;;38.47;7.40;;;;;;;;;;5049609;28;20121;-72
2022/01/03 08:03:06;;;;;;;32.50;6.93;;;;;;;;;;5081398;28;20044;-74
2022/01/03 08:05:32;;;;;;;41.50;7.05;;;;;;;;;;5047053;28;20055;-75
2022/01/03 08:07:58;;;;;;;45.15;7.68;;;;;;;;;;5050578;28;20138;-85
2022/01/03 08:10:24;;;;;;;41.83;7.88;;;;;;;;;;5083390;28;20044;-72
2022/01/03 08:12:50;;;;;;;38.28;7.22;;;;;;;;;;5068211;28;20586;-75
2022/01/03 08:15:16;;;;;;;41.88;7.32;;;;;;;;;;5068610;28;20056;-70
2022/01/03 08:17:46;;;;;;;51.25;7.57;;;;;;;;;;5068037;28;20086;-71
2022/01/03 08:20:12;;;;;;;48.03;7.95;;;;;;;;;;5066132;28;20052;-69
2022/01/03 08:22:38;;;;;;;44.00;8.45;;;;;;;;;;5065256;28;20437;-80
2022/01/03 08:25:05;;;;;;;50.85;7.90;;;;;;;;;;5047996;28;20630;-77
2022/01/03 08:27:31;;;;;;;;;;;;;;;;;;5054344;28;20037;-75
2022/01/03 08:29:57;;;;;;;41.17;6.43;;;;;;;;;;5048239;28;20329;-73
2022/01/03 08:32:23;;;;;;;37.50;6.18;;;;;;;;;;5049058;28;20116;-74
2022/01/03 08:34:50;;;;;;;48.63;7.43;;;;;;;;;;5048082;28;20045;-76
2022/01/03 08:37:16;;;;;;;47.03;7.72;;;;;;;;;;5047983;28;20075;-74
2022/01/03 08:39:42;;;;;;;33.05;6.82;;;;;;;;;;5046634;28;20048;-72
2022/01/03 08:42:09;;;;;;;50.65;8.15;;;;;;;;;;5047861;28;20489;-74
2022/01/03 08:44:35;;;;;;;42.83;7.85;;;;;;;;;;5054683;28;20070;-75
2022/01/03 08:47:01;;;;;;;34.70;6.63;;;;;;;;;;5048146;28;20381;-70
2022/01/03 08:49:27;;;;;;;46.55;7.55;;;;;;;;;;5047927;28;20056;-70
2022/01/03 08:51:53;;;;;;;33.20;6.72;;;;;;;;;;5048297;28;20120;-79
2022/01/03 08:54:19;;;;;;;40.83;6.63;;;;;;;;;;5049161;28;20079;-86
2022/01/03 08:56:45;;;;;;;38.95;7.57;;;;;;;;;;5045738;28;20493;-72
2022/01/03 08:59:11;;;;;;;38.97;6.32;;;;;;;;;;5046957;28;20410;-74
2022/01/03 09:01:37;;;;;;;37.00;6.38;;;;;;;;;;5046209;28;20053;-77
2022/01/03 09:04:03;;;;;;;46.13;6.78;;;;;;;;;;5067984;28;20036;-72
2022/01/03 09:06:29;;;;;;;36.50;6.70;;;;;;;;;;5068627;28;20052;-74
2022/01/03 09:08:55;;;;;;;42.78;8.18;;;;;;;;;;5068028;28;20040;-75
2022/01/03 09:11:21;;;;;;;37.35;7.15;;;;;;;;;;5068277;28;20045;-75
2022/01/03 09:13:48;;;;;;;43.45;7.50;;;;;;;;;;5067920;28;20516;-73
2022/01/03 09:16:14;;;;;;;39.80;6.90;;;;;;;;;;5065072;28;20064;-72
2022/01/03 09:18:41;;;;;;;36.80;6.45;;;;;;;;;;5067767;28;20207;-73
2022/01/03 09:21:07;;;;;;;;;;;;;;;;;;5069277;28;20368;-77
2022/01/03 09:23:37;;;;;;;34.75;6.65;;;;;;;;;;5068696;28;19950;-72
2022/01/03 09:28:56;;;;;;;34.47;6.22;;;;;;;;;;5073636;28;20136;-72
2022/01/03 09:31:22;;;;;;;35.80;6.30;;;;;;;;;;5050915;28;20053;-66
2022/01/03 09:33:48;;;;;;;41.25;6.55;;;;;;;;;;5051774;28;20099;-73
2022/01/03 09:36:16;;;;;;;42.30;6.40;;;;;;;;;;5052650;28;20045;-73
2022/01/03 09:38:43;;;;;;;46.45;7.63;;;;;;;;;;5050710;28;20125;-78
2022/01/03 09:41:11;;;;;;;42.85;7.38;;;;;;;;;;5068977;28;20135;-71
2022/01/03 09:43:48;;;;;;;41.15;7.28;;;;;;;;;;5102693;28;20055;-74
2022/01/03 09:46:18;;;;;;;47.53;7.90;;;;;;;;;;5071899;28;20074;-74
2022/01/03 09:48:51;;;;;;;39.58;7.90;;;;;;;;;;5070960;28;20045;-81
2022/01/03 09:51:17;;;;;;;43.55;6.10;;;;;;;;;;5070920;28;20076;-73
2022/01/03 09:53:43;;;;;;;37.30;6.50;;;;;;;;;;5068371;28;20044;-72
2022/01/03 09:56:09;;;;;;;;;;;;;;;;;;5071288;28;20047;-76
2022/01/03 09:58:36;;;;;;;41.17;6.65;;;;;;;;;;5071302;28;19920;-69
2022/01/03 10:01:02;;;;;;;35.50;6.00;;;;;;;;;;5070459;28;20044;-73
2022/01/03 10:03:28;;;;;;;49.25;7.32;;;;;;;;;;5070352;28;20086;-69
2022/01/03 10:05:55;;;;;;;44.10;6.78;;;;;;;;;;5067885;28;20124;-68
2022/01/03 10:08:21;;;;;;;39.92;7.03;;;;;;;;;;5069115;28;20067;-69
2022/01/03 10:10:50;;;;;;;45.72;6.88;;;;;;;;;;5070003;28;20049;-67
2022/01/03 10:13:16;;;;;;;37.92;7.63;;;;;;;;;;5070757;28;20040;-82
2022/01/03 10:15:42;;;;;;;36.72;7.28;;;;;;;;;;5068878;28;20463;-77
2022/01/03 10:18:16;;;;;;;42.58;7.40;;;;;;;;;;5069840;28;20110;-73
2022/01/03 10:20:42;;;;;;;44.42;7.60;;;;;;;;;;5069833;28;20080;-75
2022/01/03 10:23:14;;;;;;;40.65;6.75;;;;;;;;;;5069263;28;20052;-74
2022/01/03 10:25:40;;;;;;;35.90;6.78;;;;;;;;;;5070732;28;20515;-77
2022/01/03 10:28:06;;;;;;;49.47;6.72;;;;;;;;;;5067763;28;20053;-73
2022/01/03 10:30:32;;;;;;;38.53;7.43;;;;;;;;;;5069916;28;20079;-71
2022/01/03 10:32:59;;;;;;;35.28;6.28;;;;;;;;;;5071530;28;20510;-74
2022/01/03 10:35:25;;;;;;;34.33;7.38;;;;;;;;;;5071747;28;20045;-71
2022/01/03 10:37:51;;;;;;;41.78;7.53;;;;;;;;;;5071510;28;20498;-78
2022/01/03 10:40:20;;;;;;;42.83;7.68;;;;;;;;;;5071817;28;20492;-74
2022/01/03 10:42:47;;;;;;;35.47;6.57;;;;;;;;;;5052479;28;20374;-84
2022/01/03 10:45:13;;;;;;;;;;;;;;;;;;5050619;28;20049;-73
2022/01/03 10:47:42;;;;;;;41.75;6.97;;;;;;;;;;5052052;28;19997;-72
2022/01/03 10:50:18;;;;;;;31.92;6.32;;;;;;;;;;5051341;28;20493;-81
2022/01/03 10:52:46;;;;;;;38.55;6.50;;;;;;;;;;5051950;28;20132;-70
2022/01/03 10:55:17;;;;;;;50.30;7.05;;;;;;;;;;5051995;28;20082;-77
2022/01/03 10:57:48;;;;;;;37.85;7.25;;;;;;;;;;5051914;28;20376;-79
2022/01/03 11:00:15;;;;;;;37.45;7.32;;;;;;;;;;5050194;28;20381;-70
2022/01/03 11:02:41;;;;;;;36.55;6.50;;;;;;;;;;5051386;28;20045;-69
2022/01/03 11:05:11;;;;;;;44.22;7.72;;;;;;;;;;5050982;28;20575;-73
2022/01/03 11:13:03;;;;;;;41.28;7.38;;;;;;;;;;5055337;28;20049;-67
2022/01/03 11:15:29;;;;;;;30.15;5.68;;;;;;;;;;5067391;28;20079;-69
2022/01/03 11:18:08;;;;;;;40.50;7.45;;;;;;;;;;5065725;28;20044;-75
2022/01/03 11:20:34;;;;;;;38.80;6.72;;;;;;;;;;5071480;28;20484;-74
2022/01/03 11:23:00;;;;;;;31.83;6.20;;;;;;;;;;5056880;28;20048;-72
2022/01/03 11:25:31;;;;;;;35.63;5.55;;;;;;;;;;5098470;28;20060;-75
2022/01/03 11:27:57;;;;;;;36.30;6.72;;;;;;;;;;5081411;28;20165;-72
2022/01/03 11:30:23;;;;;;;38.20;6.13;;;;;;;;;;5050087;28;20122;-73
2022/01/03 11:32:50;;;;;;;48.95;7.20;;;;;;;;;;5050364;28;20389;-84
2022/01/03 11:35:17;;;;;;;46.03;8.75;;;;;;;;;;5062336;28;20138;-67
2022/01/03 11:37:45;;;;;;;40.30;5.97;;;;;;;;;;5051655;28;20044;-79
2022/01/03 11:40:13;;;;;;;31.25;6.13;;;;;;;;;;5049661;28;20048;-69
2022/01/03 11:42:39;;;;;;;32.08;6.65;;;;;;;;;;5049685;28;20048;-75
2022/01/03 11:45:06;;;;;;;45.38;8.15;;;;;;;;;;5049592;28;20064;-72
2022/01/03 11:47:31;;;;;;;;;;;;;;;;;;5053997;28;20098;-78
2022/01/03 11:49:58;;;;;;;37.58;6.28;;;;;;;;;;5048938;28;19921;-73
2022/01/03 11:52:24;;;;;;;37.15;6.30;;;;;;;;;;5048810;28;20128;-67
2022/01/03 11:54:52;;;;;;;32.90;5.13;;;;;;;;;;5058129;28;20140;-75
2022/01/03 11:57:27;;;;;;;35.78;6.07;;;;;;;;;;5066998;28;20540;-70
2022/01/03 12:05:47;;;;;;;38.35;6.15;;;;;;;;;;5101389;28;20144;-71
2022/01/03 12:08:29;;;;;;;35.47;6.35;;;;;;;;;;5067444;28;20121;-74
2022/01/03 12:10:57;;;;;;;33.42;6.60;;;;;;;;;;5072875;28;20059;-71
2022/01/03 12:13:43;;;;;;;38.60;7.50;;;;;;;;;;5090035;28;20111;-68
2022/01/03 12:16:09;;;;;;;35.72;5.78;;;;;;;;;;5069068;28;20140;-69
2022/01/03 12:18:35;;;;;;;43.30;6.70;;;;;;;;;;5067958;28;20045;-73
2022/01/03 12:21:02;;;;;;;33.17;6.07;;;;;;;;;;5069611;28;20147;-71
2022/01/03 12:23:40;;;;;;;33.15;5.60;;;;;;;;;;5070092;28;20476;-79
2022/01/03 12:26:12;;;;;;;33.92;6.03;;;;;;;;;;5086466;28;20050;-70
2022/01/03 12:28:57;;;;;;;37.35;6.13;;;;;;;;;;5076987;28;20037;-69
2022/01/03 12:31:23;;;;;;;32.55;7.63;;;;;;;;;;5068593;28;20136;-79
2022/01/03 12:34:08;;;;;;;30.52;5.72;;;;;;;;;;5072959;28;20074;-68
2022/01/03 12:36:34;;;;;;;34.40;7.25;;;;;;;;;;5076678;28;20123;-78
2022/01/03 12:39:05;;;;;;;39.55;6.38;;;;;;;;;;5069516;28;20084;-71
2022/01/03 12:41:38;;;;;;;43.40;6.72;;;;;;;;;;5068950;28;20098;-70
2022/01/03 12:44:05;;;;;;;35.90;6.97;;;;;;;;;;5069718;28;20047;-79
2022/01/03 12:46:31;;;;;;;32.17;6.65;;;;;;;;;;5069335;28;20048;-71
2022/01/03 12:49:17;;;;;;;38.50;6.72;;;;;;;;;;5067756;28;20063;-82
2022/01/03 12:51:43;;;;;;;34.28;5.82;;;;;;;;;;5069033;28;20088;-76
2022/01/03 12:54:12;;;;;;;32.20;6.85;;;;;;;;;;5070019;28;20040;-74
2022/01/03 12:56:38;;;;;;;40.03;7.07;;;;;;;;;;5068783;28;20083;-76
2022/01/03 12:59:12;;;;;;;34.92;7.13;;;;;;;;;;5068879;28;20131;-72
2022/01/03 13:01:38;;;;;;;33.90;6.43;;;;;;;;;;5068951;28;20138;-82
2022/01/03 13:04:20;;;;;;;34.20;6.28;;;;;;;;;;5067771;28;20048;-71
2022/01/03 13:06:47;;;;;;;36.08;5.75;;;;;;;;;;5091452;28;20128;-77
2022/01/03 13:09:13;;;;;;;37.80;6.63;;;;;;;;;;5092061;28;20497;-74
2022/01/03 13:11:43;;;;;;;34.58;6.20;;;;;;;;;;5093050;28;20081;-77
2022/01/03 13:14:12;;;;;;;29.83;5.65;;;;;;;;;;5093344;28;20040;-66
2022/01/03 13:16:40;;;;;;;35.30;6.25;;;;;;;;;;5093257;28;20048;-73
2022/01/03 13:19:06;;;;;;;34.80;6.05;;;;;;;;;;5073082;28;20399;-74
2022/01/03 13:21:36;;;;;;;38.95;6.40;;;;;;;;;;5072070;28;20131;-74
2022/01/03 13:24:05;;;;;;;42.53;5.93;;;;;;;;;;5072684;28;20056;-70
2022/01/03 13:26:33;;;;;;;27.38;5.13;;;;;;;;;;5072159;28;20056;-70
2022/01/03 13:29:02;;;;;;;40.70;6.68;;;;;;;;;;5071362;28;20139;-79
2022/01/03 13:31:28;;;;;;;27.40;5.47;;;;;;;;;;5088652;28;20119;-79
2022/01/03 13:33:58;;;;;;;36.80;6.45;;;;;;;;;;5091792;28;20048;-81
2022/01/03 13:36:34;;;;;;;32.35;5.63;;;;;;;;;;5092240;28;20070;-81
2022/01/03 13:39:11;;;;;;;38.10;5.90;;;;;;;;;;5091835;28;20077;-73
2022/01/03 13:41:38;;;;;;;32.72;6.25;;;;;;;;;;5090505;28;20457;-75
2022/01/03 13:44:05;;;;;;;32.38;5.90;;;;;;;;;;5092355;28;20047;-79
2022/01/03 13:49:21;;;;;;;37.03;6.50;;;;;;;;;;5091474;28;20044;-69
2022/01/03 13:51:55;;;;;;;35.92;5.80;;;;;;;;;;5092513;28;20056;-78
2022/01/03 13:54:25;;;;;;;43.08;6.85;;;;;;;;;;5089134;28;20040;-70
2022/01/03 13:56:52;;;;;;;36.25;6.90;;;;;;;;;;5075427;28;20409;-82
2022/01/03 13:59:18;;;;;;;37.15;5.72;;;;;;;;;;5079421;28;20498;-76
2022/01/03 14:01:46;;;;;;;35.03;5.93;;;;;;;;;;5085037;28;20136;-73
2022/01/03 14:04:12;;;;;;;36.45;6.78;;;;;;;;;;5052762;28;20079;-84
2022/01/03 14:06:38;;;;;;;41.33;6.95;;;;;;;;;;5084208;28;20122;-84
2022/01/03 14:09:30;;;;;;;40.13;6.88;;;;;;;;;;5087591;28;20044;-73
2022/01/03 14:12:07;;;;;;;33.80;5.95;;;;;;;;;;5073169;28;20052;-72
2022/01/03 14:14:36;;;;;;;32.70;6.80;;;;;;;;;;5073456;28;20048;-77
2022/01/03 14:17:06;;;;;;;33.28;4.97;;;;;;;;;;5071222;28;20060;-76
2022/01/03 14:19:32;;;;;;;38.55;6.68;;;;;;;;;;5072019;28;20052;-79
2022/01/03 14:21:58;;;;;;;;;;;;;;;;;;5071438;28;20481;-73
2022/01/03 14:24:25;;;;;;;31.80;6.45;;;;;;;;;;5080118;28;19927;-72
2022/01/03 14:26:50;;;;;;;;;;;;;;;;;;5092785;28;20048;-73
2022/01/03 14:29:17;;;;;;;32.55;6.20;;;;;;;;;;5092427;28;19927;-84
2022/01/03 14:31:44;;;;;;;35.85;7.03;;;;;;;;;;5090829;28;20052;-81
2022/01/03 14:34:10;;;;;;;42.25;7.72;;;;;;;;;;5089049;28;20044;-70
2022/01/03 14:36:36;;;;;;;;;;;;;;;;;;5091066;28;20040;-88
2022/01/03 14:39:02;;;;;;;36.55;6.43;;;;;;;;;;5070404;28;19921;-78
2022/01/03 14:41:28;;;;;;;41.75;6.28;;;;;;;;;;5071061;28;20139;-70
2022/01/03 14:44:05;;;;;;;39.85;6.30;;;;;;;;;;5071912;28;20044;-87
2022/01/03 14:46:38;;;;;;;43.65;7.13;;;;;;;;;;5071556;28;20053;-75
2022/01/03 14:49:05;;;;;;;40.13;7.25;;;;;;;;;;5083743;28;20181;-70
2022/01/03 14:51:39;;;;;;;36.47;6.30;;;;;;;;;;5071060;28;20086;-82
2022/01/03 14:54:12;;;;;;;41.33;7.55;;;;;;;;;;5089742;28;20541;-72
2022/01/03 14:56:38;;;;;;;37.72;6.60;;;;;;;;;;5091329;28;20079;-75
2022/01/03 14:59:24;;;;;;;46.13;8.20;;;;;;;;;;5092061;28;20048;-75
2022/01/03 15:01:51;;;;;;;41.50;7.13;;;;;;;;;;5091665;28;20503;-75